Time;durP1;ratioP1;P1;durP2;ratioP2;P2;SDS_P1;SDS_P2;PMS_P1;PMS_P2;Temp;Humidity;BMP_temperature;BMP_pressure;BME280_temperature;BME280_humidity;BME280_pressure;Samples;Min_cycle;Max_cycle;Signal;HPM_P1;HPM_P2
2023/03/07 00:01:41;;;;;;;8.80;4.57;;;5.70;99.90;;;;;;5054483;28;20055;-70
2023/03/07 00:04:07;;;;;;;7.88;5.72;;;5.70;99.90;;;;;;5054238;28;20029;-70
2023/03/07 00:06:33;;;;;;;4.93;3.05;;;5.70;99.90;;;;;;5052600;28;20024;-70
2023/03/07 00:09:00;;;;;;;10.20;6.38;;;5.70;99.90;;;;;;5053961;28;20074;-71
2023/03/07 00:11:27;;;;;;;3.38;2.88;;;5.70;99.90;;;;;;5036429;28;20120;-73
2023/03/07 00:13:54;;;;;;;7.45;3.80;;;5.70;99.90;;;;;;5054055;28;20021;-72
2023/03/07 00:16:21;;;;;;;7.13;3.55;;;5.70;99.90;;;;;;5053950;28;20090;-71
2023/03/07 00:18:48;;;;;;;5.28;1.75;;;5.70;99.90;;;;;;5053732;28;20033;-71
2023/03/07 00:21:16;;;;;;;12.82;5.97;;;5.70;99.90;;;;;;5053518;28;20116;-70
2023/03/07 00:23:44;;;;;;;4.63;2.95;;;5.70;99.90;;;;;;5053830;28;20056;-71
2023/03/07 00:26:12;;;;;;;4.13;3.30;;;5.70;99.90;;;;;;5055189;28;20029;-71
2023/03/07 00:28:39;;;;;;;1.48;1.38;;;5.70;99.90;;;;;;5053815;28;20027;-71
2023/03/07 00:31:08;;;;;;;4.65;2.70;;;5.80;99.90;;;;;;5052573;28;20029;-70
2023/03/07 00:33:34;;;;;;;4.88;2.08;;;5.80;99.90;;;;;;5052568;28;20025;-70
2023/03/07 00:36:06;;;;;;;1.45;1.17;;;5.80;99.90;;;;;;5085633;28;20047;-70
2023/03/07 00:38:33;;;;;;;3.15;2.65;;;5.80;99.90;;;;;;5052018;28;20032;-70
2023/03/07 00:41:10;;;;;;;3.70;2.63;;;5.70;99.90;;;;;;5053537;28;20017;-70
2023/03/07 00:43:37;;;;;;;12.55;5.57;;;5.70;99.90;;;;;;5052189;28;20025;-71
2023/03/07 00:46:04;;;;;;;3.08;2.40;;;5.60;99.90;;;;;;5053495;28;20025;-70
2023/03/07 00:48:33;;;;;;;3.42;2.17;;;5.70;99.90;;;;;;5053189;28;20033;-69
2023/03/07 00:50:59;;;;;;;3.78;1.52;;;5.70;99.90;;;;;;5051749;28;20389;-69
2023/03/07 00:53:25;;;;;;;3.20;2.08;;;5.70;99.90;;;;;;5052108;28;20024;-70
2023/03/07 00:56:21;;;;;;;6.32;2.20;;;5.70;99.90;;;;;;5051861;28;20044;-70
2023/03/07 00:58:47;;;;;;;5.10;2.13;;;5.70;99.90;;;;;;5051151;28;20078;-72
2023/03/07 01:01:15;;;;;;;11.68;6.55;;;5.60;99.90;;;;;;5053219;28;20028;-69
2023/03/07 01:03:42;;;;;;;2.85;2.08;;;5.60;99.90;;;;;;5051611;28;20021;-72
2023/03/07 01:06:14;;;;;;;2.80;2.10;;;5.60;99.90;;;;;;5053097;28;20021;-69
2023/03/07 01:08:40;;;;;;;8.57;2.58;;;5.60;99.90;;;;;;5051979;28;20025;-70
2023/03/07 01:11:06;;;;;;;6.50;3.42;;;5.60;99.90;;;;;;5051677;28;20102;-70
2023/03/07 01:13:34;;;;;;;37.40;2.67;;;5.60;99.90;;;;;;5052056;28;20052;-72
2023/03/07 01:16:14;;;;;;;0.70;0.57;;;5.60;99.90;;;;;;5053601;28;20079;-72
2023/03/07 01:18:42;;;;;;;0.90;0.82;;;5.60;99.90;;;;;;5051964;28;20036;-71
2023/03/07 01:21:15;;;;;;;6.22;3.13;;;5.60;99.90;;;;;;5051551;28;20043;-71
2023/03/07 01:23:41;;;;;;;11.23;2.95;;;5.60;99.90;;;;;;5051756;28;20056;-71
2023/03/07 01:26:13;;;;;;;2.83;1.52;;;5.60;99.90;;;;;;5051189;28;20032;-71
2023/03/07 01:28:40;;;;;;;3.13;2.20;;;5.60;99.90;;;;;;5052937;28;20032;-73
2023/03/07 01:31:06;;;;;;;2.10;1.80;;;5.60;99.90;;;;;;5052445;28;20393;-73
2023/03/07 01:33:32;;;;;;;13.15;2.47;;;5.60;99.90;;;;;;5051169;28;20569;-72
2023/03/07 01:35:58;;;;;;;3.70;2.75;;;5.60;99.90;;;;;;5052443;28;20120;-74
2023/03/07 01:38:24;;;;;;;1.83;1.13;;;5.60;99.90;;;;;;5050957;28;20028;-73
2023/03/07 01:40:50;;;;;;;0.63;0.63;;;5.60;99.90;;;;;;5031937;28;20056;-73
2023/03/07 01:43:24;;;;;;;6.22;4.13;;;5.70;99.90;;;;;;5084878;28;20045;-73
2023/03/07 01:46:15;;;;;;;1.80;0.85;;;5.70;99.90;;;;;;5050971;28;20032;-73
2023/03/07 01:48:49;;;;;;;6.25;3.17;;;5.70;99.90;;;;;;5050938;28;20033;-73
2023/03/07 01:51:15;;;;;;;1.05;0.93;;;5.70;99.90;;;;;;5052523;28;20025;-72
2023/03/07 01:53:42;;;;;;;7.43;1.77;;;5.70;99.90;;;;;;5084785;28;20064;-72
2023/03/07 01:56:10;;;;;;;3.20;2.03;;;5.70;99.90;;;;;;5084630;28;20112;-70
2023/03/07 01:58:38;;;;;;;1.40;1.30;;;5.70;99.90;;;;;;5052336;28;20037;-71
2023/03/07 02:01:07;;;;;;;6.28;3.08;;;5.60;99.90;;;;;;5051082;28;20040;-71
2023/03/07 02:03:58;;;;;;;3.83;1.77;;;5.60;99.90;;;;;;5052192;28;20025;-71
2023/03/07 02:06:26;;;;;;;6.63;3.50;;;5.60;99.90;;;;;;5051010;28;20037;-72
2023/03/07 02:08:54;;;;;;;1.63;1.45;;;5.70;99.90;;;;;;5051151;28;20021;-71
2023/03/07 02:11:20;;;;;;;1.15;1.05;;;5.70;99.90;;;;;;5055135;28;20083;-70
2023/03/07 02:13:46;;;;;;;2.17;1.98;;;5.60;99.90;;;;;;5055151;28;20028;-71
2023/03/07 02:16:12;;;;;;;5.43;2.95;;;5.50;99.90;;;;;;5056011;28;20041;-72
2023/03/07 02:18:43;;;;;;;1.83;1.63;;;5.50;99.90;;;;;;5056012;28;20355;-71
2023/03/07 02:21:17;;;;;;;4.67;2.33;;;5.50;99.90;;;;;;5054930;28;20032;-71
2023/03/07 02:23:54;;;;;;;2.63;1.55;;;5.50;99.90;;;;;;5056170;28;20025;-72
2023/03/07 02:26:24;;;;;;;1.48;1.38;;;5.50;99.90;;;;;;5054779;28;20450;-70
2023/03/07 02:28:50;;;;;;;2.28;1.65;;;5.50;99.90;;;;;;5054878;28;20021;-70
2023/03/07 02:31:17;;;;;;;2.97;1.48;;;5.60;99.90;;;;;;5038233;28;20427;-71
2023/03/07 02:33:43;;;;;;;0.20;0.20;;;5.50;99.90;;;;;;5037252;28;20116;-72
2023/03/07 02:36:14;;;;;;;2.95;1.13;;;5.60;99.90;;;;;;5055965;28;20032;-71
2023/03/07 02:38:49;;;;;;;4.82;2.83;;;5.70;99.90;;;;;;5054388;28;20090;-72
2023/03/07 02:41:19;;;;;;;0.57;0.57;;;5.60;99.90;;;;;;5054519;28;20029;-71
2023/03/07 02:43:45;;;;;;;4.50;1.88;;;5.50;99.90;;;;;;5054404;28;20094;-71
2023/03/07 02:46:11;;;;;;;5.32;3.25;;;5.60;99.90;;;;;;5088000;28;20108;-72
2023/03/07 02:48:37;;;;;;;1.13;0.52;;;5.50;99.90;;;;;;5054370;28;20033;-71
2023/03/07 02:51:04;;;;;;;4.82;2.17;;;5.50;99.90;;;;;;5087719;28;20170;-72
2023/03/07 02:53:30;;;;;;;1.98;1.80;;;5.50;99.90;;;;;;5054391;28;20021;-73
2023/03/07 02:55:56;;;;;;;2.10;1.90;;;5.50;99.90;;;;;;5055134;28;20091;-74
2023/03/07 02:58:22;;;;;;;1.38;0.77;;;5.50;99.90;;;;;;5054231;28;20021;-73
2023/03/07 03:00:48;;;;;;;1.52;1.40;;;5.50;99.90;;;;;;5054127;28;20029;-72
2023/03/07 03:03:14;;;;;;;3.25;2.13;;;5.50;99.90;;;;;;5087711;28;20029;-72
2023/03/07 03:05:39;;;;;;;2.15;1.95;;;5.50;99.90;;;;;;5054068;28;20488;-72
2023/03/07 03:08:06;;;;;;;1.08;0.85;;;5.50;99.90;;;;;;5087370;28;20021;-72
2023/03/07 03:10:31;;;;;;;0.57;0.57;;;5.50;99.90;;;;;;5054119;28;20033;-71
2023/03/07 03:12:59;;;;;;;2.17;1.33;;;5.60;99.90;;;;;;5053825;28;20093;-73
2023/03/07 03:15:25;;;;;;;3.47;1.52;;;5.60;99.90;;;;;;5054881;28;20041;-73
2023/03/07 03:17:53;;;;;;;1.45;0.75;;;5.50;99.90;;;;;;5053747;28;20021;-71
2023/03/07 03:20:19;;;;;;;0.63;0.60;;;5.50;99.90;;;;;;5053865;28;20485;-71
2023/03/07 03:22:44;;;;;;;2.65;1.45;;;5.50;99.90;;;;;;5054145;28;20096;-73
2023/03/07 03:25:12;;;;;;;4.13;2.53;;;5.60;99.90;;;;;;5037276;28;20385;-71
2023/03/07 03:27:40;;;;;;;0.88;0.82;;;5.50;99.90;;;;;;5053570;28;20025;-71
2023/03/07 03:30:09;;;;;;;4.93;2.60;;;5.60;99.90;;;;;;5053188;28;20102;-71
2023/03/07 03:32:36;;;;;;;0.75;0.60;;;5.50;99.90;;;;;;5053830;28;20017;-70
2023/03/07 03:35:03;;;;;;;0.50;0.50;;;5.60;99.90;;;;;;5052871;28;20045;-73
2023/03/07 03:37:30;;;;;;;1.17;0.90;;;5.70;99.90;;;;;;5053721;28;20021;-71
2023/03/07 03:39:56;;;;;;;3.50;1.38;;;5.60;99.90;;;;;;5053567;28;20037;-71
2023/03/07 03:42:22;;;;;;;1.48;0.57;;;5.60;99.90;;;;;;5053412;28;20071;-71
2023/03/07 03:44:48;;;;;;;2.15;1.52;;;5.60;99.90;;;;;;5053132;28;20067;-71
2023/03/07 03:47:15;;;;;;;1.73;1.30;;;5.60;99.90;;;;;;5086636;28;20048;-71
2023/03/07 03:49:41;;;;;;;1.20;1.10;;;5.60;99.90;;;;;;5086709;28;20086;-73
2023/03/07 03:52:08;;;;;;;6.68;3.15;;;5.60;99.90;;;;;;5053284;28;20035;-72
2023/03/07 03:54:34;;;;;;;5.95;2.90;;;5.60;99.90;;;;;;5052855;28;20119;-73
2023/03/07 03:57:00;;;;;;;2.80;2.10;;;5.60;99.90;;;;;;5054401;28;20016;-71
2023/03/07 03:59:28;;;;;;;4.18;1.90;;;5.70;99.90;;;;;;5052672;28;20115;-73
2023/03/07 04:01:54;;;;;;;2.20;1.58;;;5.60;99.90;;;;;;5053271;28;20045;-71
2023/03/07 04:04:21;;;;;;;7.10;3.60;;;5.70;99.90;;;;;;5052427;28;20108;-71
2023/03/07 04:06:47;;;;;;;3.05;1.90;;;5.60;99.90;;;;;;5052944;28;20481;-73
2023/03/07 04:09:13;;;;;;;5.18;3.08;;;5.60;99.90;;;;;;5052864;28;20028;-72
2023/03/07 04:11:41;;;;;;;6.35;3.85;;;5.60;99.90;;;;;;5053039;28;20477;-73
2023/03/07 04:14:07;;;;;;;4.93;2.83;;;5.60;99.90;;;;;;5052341;28;20050;-72
2023/03/07 04:16:33;;;;;;;3.17;2.22;;;5.70;99.90;;;;;;5086272;28;20028;-73
2023/03/07 04:18:59;;;;;;;3.00;1.88;;;5.70;99.90;;;;;;5053734;28;20365;-73
2023/03/07 04:21:25;;;;;;;11.63;2.88;;;5.80;99.90;;;;;;5053933;28;20131;-70
2023/03/07 04:23:56;;;;;;;12.27;5.78;;;5.70;99.90;;;;;;5052707;28;20071;-72
2023/03/07 04:26:23;;;;;;;4.90;2.35;;;5.70;99.90;;;;;;5085937;28;20461;-72
2023/03/07 04:28:49;;;;;;;3.83;1.92;;;5.70;99.90;;;;;;5052507;28;20060;-73
2023/03/07 04:31:41;;;;;;;;;;;5.70;99.90;;;;;;5052847;28;20045;-71
2023/03/07 04:34:09;;;;;;;4.63;3.15;;;5.60;99.90;;;;;;5051503;28;19912;-71
2023/03/07 04:36:34;;;;;;;6.07;3.75;;;5.70;99.90;;;;;;5053612;28;20064;-73
2023/03/07 04:39:00;;;;;;;3.28;2.03;;;5.70;99.90;;;;;;5053510;28;20052;-71
2023/03/07 04:41:26;;;;;;;4.65;3.92;;;5.70;99.90;;;;;;5053056;28;20473;-73
2023/03/07 04:43:59;;;;;;;2.15;1.98;;;5.70;99.90;;;;;;5085847;28;20060;-73
2023/03/07 04:46:27;;;;;;;9.43;4.43;;;5.70;99.90;;;;;;5035443;28;20064;-71
2023/03/07 04:48:53;;;;;;;1.92;1.80;;;5.70;99.90;;;;;;5053136;28;20016;-71
2023/03/07 04:51:19;;;;;;;7.00;4.28;;;5.70;99.90;;;;;;5053179;28;20452;-74
2023/03/07 04:53:47;;;;;;;5.18;3.83;;;5.70;99.90;;;;;;5052132;28;20055;-73
2023/03/07 04:56:15;;;;;;;8.98;5.28;;;5.70;99.90;;;;;;5051254;28;20029;-72
2023/03/07 04:58:44;;;;;;;3.08;1.88;;;5.60;99.90;;;;;;5053439;28;20039;-73
2023/03/07 05:01:11;;;;;;;11.07;4.57;;;5.70;99.90;;;;;;5051828;28;20052;-72
2023/03/07 05:03:36;;;;;;;10.57;5.35;;;5.60;99.90;;;;;;5051725;28;20457;-73
2023/03/07 05:06:07;;;;;;;2.95;2.45;;;5.60;99.90;;;;;;5085338;28;20021;-72
2023/03/07 05:08:33;;;;;;;0.63;0.63;;;5.60;99.90;;;;;;5051762;28;20029;-71
2023/03/07 05:10:59;;;;;;;6.22;3.60;;;5.60;99.90;;;;;;5052524;28;20025;-72
2023/03/07 05:13:26;;;;;;;4.53;3.08;;;5.60;99.90;;;;;;5051840;28;20370;-71
2023/03/07 05:15:56;;;;;;;8.00;5.05;;;5.70;99.90;;;;;;5052855;28;20044;-71
2023/03/07 05:18:23;;;;;;;2.40;1.88;;;5.60;99.90;;;;;;5052676;28;20032;-72
2023/03/07 05:20:50;;;;;;;14.73;6.63;;;5.70;99.90;;;;;;5051520;28;20025;-72
2023/03/07 05:23:17;;;;;;;19.17;6.93;;;5.60;99.90;;;;;;5052923;28;20036;-71
2023/03/07 05:25:45;;;;;;;12.60;5.22;;;5.60;99.90;;;;;;5051189;28;20029;-72
2023/03/07 05:28:12;;;;;;;4.97;3.60;;;5.60;99.90;;;;;;5051393;28;20039;-70
2023/03/07 05:30:37;;;;;;;7.38;3.85;;;5.60;99.90;;;;;;5051486;28;20489;-71
2023/03/07 05:33:04;;;;;;;9.55;3.97;;;5.50;99.90;;;;;;5051313;28;20036;-70
2023/03/07 05:35:30;;;;;;;6.32;3.97;;;5.60;99.90;;;;;;5034691;28;20040;-70
2023/03/07 05:37:57;;;;;;;10.07;5.65;;;5.60;99.90;;;;;;5051140;28;20439;-70
2023/03/07 05:40:23;;;;;;;6.38;3.70;;;5.50;99.90;;;;;;5034415;28;20028;-70
2023/03/07 05:42:49;;;;;;;11.75;7.57;;;5.50;99.90;;;;;;5052629;28;20033;-71
2023/03/07 05:45:16;;;;;;;4.80;3.38;;;5.50;99.90;;;;;;5050887;28;20508;-71
2023/03/07 05:47:42;;;;;;;3.70;2.13;;;5.60;99.90;;;;;;5051310;28;20061;-72
2023/03/07 05:50:10;;;;;;;6.57;4.43;;;5.60;99.90;;;;;;5051273;28;20029;-70
2023/03/07 05:52:37;;;;;;;5.07;2.70;;;5.50;99.90;;;;;;5050985;28;20059;-70
2023/03/07 05:55:03;;;;;;;8.68;6.10;;;5.50;99.90;;;;;;5050959;28;20064;-71
2023/03/07 05:57:30;;;;;;;3.40;2.75;;;5.50;99.90;;;;;;5050946;28;20543;-71
2023/03/07 05:59:56;;;;;;;7.13;3.97;;;5.50;99.90;;;;;;5051317;28;20029;-71
2023/03/07 06:02:22;;;;;;;2.00;1.80;;;5.50;99.90;;;;;;5084686;28;20063;-71
2023/03/07 06:04:48;;;;;;;9.10;4.55;;;5.60;99.90;;;;;;5051044;28;20075;-70
2023/03/07 06:07:14;;;;;;;4.38;2.75;;;5.60;99.90;;;;;;5052286;28;20044;-71
2023/03/07 06:09:40;;;;;;;24.63;6.10;;;5.50;99.90;;;;;;5050726;28;20362;-71
2023/03/07 06:12:09;;;;;;;8.05;5.13;;;5.50;99.90;;;;;;5051015;28;20082;-70
2023/03/07 06:14:34;;;;;;;6.95;4.63;;;5.60;99.90;;;;;;5052265;28;20160;-71
2023/03/07 06:17:01;;;;;;;4.03;1.80;;;5.60;99.90;;;;;;5050824;28;20493;-72
2023/03/07 06:19:27;;;;;;;3.33;2.35;;;5.60;99.90;;;;;;5051034;28;20024;-71
2023/03/07 06:21:53;;;;;;;9.98;3.65;;;5.70;99.90;;;;;;5084519;28;20029;-71
2023/03/07 06:24:19;;;;;;;12.65;4.93;;;5.60;99.90;;;;;;5084663;28;20432;-72
2023/03/07 06:26:45;;;;;;;7.03;3.60;;;5.60;99.90;;;;;;5050771;28;20029;-71
2023/03/07 06:29:12;;;;;;;6.38;3.50;;;5.60;99.90;;;;;;5084566;28;20017;-74
2023/03/07 06:31:38;;;;;;;10.20;5.75;;;5.70;99.90;;;;;;5050751;28;20120;-73
2023/03/07 06:34:04;;;;;;;8.63;4.25;;;5.60;99.90;;;;;;5050898;28;20032;-73
2023/03/07 06:36:30;;;;;;;2.08;1.80;;;5.60;99.90;;;;;;5050660;28;20036;-71
2023/03/07 06:38:58;;;;;;;4.28;1.92;;;5.60;99.90;;;;;;5083993;28;20029;-73
2023/03/07 06:41:24;;;;;;;6.32;4.03;;;5.70;99.90;;;;;;5034317;28;20033;-72
2023/03/07 06:43:52;;;;;;;1.48;1.35;;;5.60;99.90;;;;;;5050701;28;20108;-73
2023/03/07 06:46:23;;;;;;;0.68;0.28;;;5.70;99.90;;;;;;5050922;28;20389;-72
2023/03/07 06:48:50;;;;;;;2.90;2.15;;;5.70;99.90;;;;;;5051523;28;20013;-72
2023/03/07 06:51:18;;;;;;;2.45;2.25;;;5.70;99.90;;;;;;5050123;28;20477;-70
2023/03/07 06:53:46;;;;;;;2.85;1.27;;;5.60;99.90;;;;;;5050986;28;20059;-72
2023/03/07 06:56:11;;;;;;;1.00;1.00;;;5.50;99.90;;;;;;5034429;28;20037;-72
2023/03/07 06:58:38;;;;;;;5.18;3.60;;;5.50;99.90;;;;;;5087528;28;20119;-72
2023/03/07 07:01:04;;;;;;;2.53;1.15;;;5.30;99.90;;;;;;5087755;28;20028;-73
2023/03/07 07:03:33;;;;;;;4.55;3.05;;;5.20;99.90;;;;;;5034606;28;20022;-73
2023/03/07 07:05:59;;;;;;;5.95;1.15;;;5.20;99.90;;;;;;5050449;28;20322;-74
2023/03/07 07:08:24;;;;;;;2.20;1.40;;;5.30;99.90;;;;;;5087336;28;20025;-72
2023/03/07 07:10:50;;;;;;;1.30;1.17;;;5.20;99.90;;;;;;5054587;28;20033;-72
2023/03/07 07:13:17;;;;;;;3.40;2.03;;;5.20;99.90;;;;;;5053731;28;20013;-74
2023/03/07 07:15:43;;;;;;;4.25;1.98;;;5.30;99.90;;;;;;5076002;28;20378;-73
2023/03/07 07:18:12;;;;;;;1.98;1.25;;;5.30;99.90;;;;;;5060696;28;20052;-73
2023/03/07 07:20:38;;;;;;;4.60;2.50;;;5.30;99.90;;;;;;5061852;28;20060;-73
2023/03/07 07:23:04;;;;;;;2.72;1.85;;;5.20;99.90;;;;;;5056618;28;20017;-74
2023/03/07 07:25:30;;;;;;;2.30;1.15;;;5.30;99.90;;;;;;5088418;28;20031;-73
2023/03/07 07:27:56;;;;;;;4.90;3.05;;;5.40;99.90;;;;;;5054596;28;20032;-70
2023/03/07 07:30:22;;;;;;;0.75;0.75;;;5.30;99.90;;;;;;5076749;28;20095;-70
2023/03/07 07:32:47;;;;;;;0.63;0.60;;;5.40;99.90;;;;;;5059453;28;20024;-71
2023/03/07 07:35:14;;;;;;;6.70;2.28;;;5.40;99.90;;;;;;5050062;28;20570;-70
2023/03/07 07:37:39;;;;;;;7.53;4.75;;;5.40;99.90;;;;;;5054897;28;20462;-70
2023/03/07 07:40:07;;;;;;;7.30;3.90;;;5.40;99.90;;;;;;5055049;28;20037;-70
2023/03/07 07:42:34;;;;;;;2.13;1.75;;;5.50;99.90;;;;;;5060319;28;20021;-71
2023/03/07 07:45:24;;;;;;;2.42;2.22;;;5.60;99.90;;;;;;5060508;28;20509;-72
2023/03/07 07:47:51;;;;;;;1.67;1.40;;;5.10;99.90;;;;;;5054936;28;20489;-72
2023/03/07 07:50:18;;;;;;;0.43;0.43;;;5.00;99.90;;;;;;5085546;28;20033;-70
2023/03/07 07:52:45;;;;;;;1.33;1.23;;;5.10;99.90;;;;;;5090553;28;20013;-70
2023/03/07 07:55:14;;;;;;;0.47;0.47;;;5.00;99.90;;;;;;5068839;28;20131;-70
2023/03/07 07:57:41;;;;;;;1.23;1.05;;;4.90;99.90;;;;;;5046944;28;20025;-70
2023/03/07 08:00:08;;;;;;;0.32;0.32;;;4.90;99.90;;;;;;5041325;28;20055;-70
2023/03/07 08:02:37;;;;;;;2.13;0.73;;;4.80;99.90;;;;;;5057106;28;20032;-70
2023/03/07 08:05:09;;;;;;;0.00;0.00;;;4.90;99.90;;;;;;5053037;28;20033;-70
2023/03/07 08:07:35;;;;;;;0.10;0.10;;;4.90;99.90;;;;;;5062705;28;20053;-70
2023/03/07 08:10:01;;;;;;;0.65;0.65;;;5.20;99.90;;;;;;5042266;28;20392;-71
2023/03/07 08:12:26;;;;;;;1.88;1.77;;;5.20;99.90;;;;;;5057565;28;20032;-71
2023/03/07 08:14:52;;;;;;;0.20;0.20;;;5.10;99.90;;;;;;5049829;28;20463;-71
2023/03/07 08:17:18;;;;;;;0.40;0.40;;;5.00;99.90;;;;;;5053647;28;20029;-70
2023/03/07 08:19:44;;;;;;;0.32;0.32;;;5.00;99.90;;;;;;5055176;28;20029;-70
2023/03/07 08:22:10;;;;;;;1.88;1.73;;;5.20;99.90;;;;;;5045469;28;20010;-70
2023/03/07 08:24:36;;;;;;;0.47;0.47;;;5.10;99.90;;;;;;5054726;28;20476;-71
2023/03/07 08:27:02;;;;;;;0.10;0.10;;;5.10;99.90;;;;;;5054940;28;20028;-70
2023/03/07 08:29:28;;;;;;;0.10;0.10;;;5.30;99.90;;;;;;5053807;28;20029;-70
2023/03/07 08:31:54;;;;;;;0.40;0.32;;;5.60;99.90;;;;;;5061078;28;20446;-70
2023/03/07 08:34:20;;;;;;;1.58;1.48;;;5.50;99.90;;;;;;5058259;28;20124;-71
2023/03/07 08:36:46;;;;;;;0.40;0.40;;;5.20;99.90;;;;;;5056826;28;20044;-70
2023/03/07 08:39:12;;;;;;;0.43;0.43;;;5.00;99.90;;;;;;5055439;28;20559;-71
2023/03/07 08:41:38;;;;;;;1.75;0.65;;;4.90;99.90;;;;;;5052466;28;20037;-70
2023/03/07 08:44:04;;;;;;;0.20;0.20;;;4.80;99.90;;;;;;5056296;28;20086;-70
2023/03/07 08:46:29;;;;;;;0.47;0.47;;;4.90;99.90;;;;;;5058396;28;20025;-70
2023/03/07 08:48:55;;;;;;;1.60;1.40;;;5.00;99.90;;;;;;5051875;28;20174;-70
2023/03/07 08:51:21;;;;;;;0.20;0.20;;;4.90;99.90;;;;;;5054083;28;20029;-70
2023/03/07 08:53:47;;;;;;;0.10;0.10;;;4.90;99.90;;;;;;5064299;28;20472;-70
2023/03/07 08:56:15;;;;;;;0.50;0.50;;;5.00;99.90;;;;;;5064038;28;20039;-71
2023/03/07 08:58:41;;;;;;;0.32;0.32;;;5.10;99.90;;;;;;5061986;28;20035;-69
2023/03/07 09:01:07;;;;;;;4.95;0.68;;;5.00;99.90;;;;;;5058395;28;20107;-71
2023/03/07 09:03:34;;;;;;;0.30;0.30;;;5.00;99.90;;;;;;5052635;28;20041;-71
2023/03/07 09:06:00;;;;;;;1.02;0.68;;;5.00;99.90;;;;;;5063450;28;20048;-71
2023/03/07 09:08:26;;;;;;;0.10;0.10;;;4.90;99.90;;;;;;5062918;28;20854;-71
2023/03/07 09:10:52;;;;;;;0.10;0.10;;;5.00;99.90;;;;;;5063249;28;20019;-71
2023/03/07 09:13:18;;;;;;;0.73;0.43;;;5.30;99.90;;;;;;5054075;28;20067;-70
2023/03/07 09:15:44;;;;;;;0.28;0.28;;;5.30;99.90;;;;;;5054472;28;20055;-71
2023/03/07 09:18:10;;;;;;;0.73;0.50;;;5.00;99.90;;;;;;5063339;28;20029;-70
2023/03/07 09:20:39;;;;;;;0.10;0.10;;;4.90;99.90;;;;;;5062701;28;20382;-71
2023/03/07 09:23:06;;;;;;;0.10;0.10;;;5.00;99.90;;;;;;5060058;28;20024;-71
2023/03/07 09:25:31;;;;;;;0.10;0.10;;;5.00;99.90;;;;;;5052232;28;20124;-70
2023/03/07 09:27:57;;;;;;;0.10;0.10;;;5.40;99.90;;;;;;5065315;28;20171;-71
2023/03/07 09:30:24;;;;;;;0.52;0.40;;;5.20;99.90;;;;;;5059859;28;20029;-71
2023/03/07 09:32:50;;;;;;;0.20;0.20;;;4.90;99.90;;;;;;5058876;28;20029;-70
2023/03/07 09:35:17;;;;;;;0.30;0.30;;;4.80;99.90;;;;;;5058193;28;20354;-70
2023/03/07 09:37:42;;;;;;;0.28;0.28;;;4.80;99.90;;;;;;5056604;28;20021;-71
2023/03/07 09:40:18;;;;;;;0.30;0.30;;;4.80;99.90;;;;;;5053864;28;20033;-70
2023/03/07 09:43:14;;;;;;;0.10;0.10;;;4.90;99.90;;;;;;5059002;28;20434;-71
2023/03/07 09:45:55;;;;;;;0.88;0.57;;;4.90;99.90;;;;;;5046697;28;20239;-70
2023/03/07 09:48:55;;;;;;;0.22;0.22;;;4.90;99.90;;;;;;5051146;28;20021;-70
2023/03/07 09:51:41;;;;;;;0.10;0.10;;;4.70;99.90;;;;;;5049599;28;20045;-70
2023/03/07 09:54:22;;;;;;;0.95;0.52;;;4.80;99.90;;;;;;5054185;28;20037;-70
2023/03/07 09:56:50;;;;;;;0.10;0.10;;;4.90;99.90;;;;;;5091705;28;20048;-70
2023/03/07 09:59:40;;;;;;;0.10;0.10;;;4.70;99.90;;;;;;5064138;28;20094;-70
2023/03/07 10:02:24;;;;;;;0.10;0.10;;;4.60;99.90;;;;;;5060512;28;20028;-70
2023/03/07 10:05:32;;;;;;;0.30;0.30;;;4.70;99.90;;;;;;5053817;28;20692;-70
2023/03/07 10:08:00;;;;;;;0.10;0.10;;;4.50;99.90;;;;;;5065989;28;20033;-70
2023/03/07 10:10:40;;;;;;;0.10;0.10;;;4.70;99.90;;;;;;5066537;28;20024;-70
2023/03/07 10:13:11;;;;;;;0.57;0.45;;;4.80;99.90;;;;;;5059764;28;20375;-70
2023/03/07 10:15:52;;;;;;;0.55;0.13;;;4.70;99.90;;;;;;5055345;28;20505;-70
2023/03/07 10:18:45;;;;;;;0.40;0.40;;;4.60;99.90;;;;;;5049933;28;20025;-70
2023/03/07 10:21:23;;;;;;;0.20;0.20;;;4.50;99.90;;;;;;5052332;28;20037;-71
2023/03/07 10:24:04;;;;;;;0.10;0.10;;;4.60;99.90;;;;;;5045759;28;20051;-70
2023/03/07 10:26:55;;;;;;;0.40;0.40;;;4.50;99.90;;;;;;5045866;28;20477;-70
2023/03/07 10:29:25;;;;;;;0.30;0.30;;;4.70;99.90;;;;;;5048634;28;20128;-70
2023/03/07 10:31:55;;;;;;;0.00;0.00;;;4.70;99.90;;;;;;5053483;28;20037;-70
2023/03/07 10:34:27;;;;;;;0.17;0.17;;;4.60;99.90;;;;;;5048629;28;20035;-70
2023/03/07 10:37:18;;;;;;;0.25;0.25;;;4.90;99.90;;;;;;5053155;28;20017;-70
2023/03/07 10:39:52;;;;;;;2.53;0.75;;;5.00;99.90;;;;;;5033642;28;20057;-69
2023/03/07 10:42:32;;;;;;;0.43;0.17;;;4.90;99.90;;;;;;5040386;28;20068;-70
2023/03/07 10:44:58;;;;;;;0.13;0.13;;;4.90;99.90;;;;;;5053623;28;20075;-73
2023/03/07 10:47:27;;;;;;;0.10;0.10;;;5.00;99.90;;;;;;5060963;28;20025;-73
2023/03/07 10:50:03;;;;;;;0.30;0.30;;;4.80;99.90;;;;;;5059175;28;20037;-72
2023/03/07 10:52:43;;;;;;;0.10;0.10;;;4.90;99.90;;;;;;5061648;28;20090;-73
2023/03/07 10:55:41;;;;;;;0.20;0.20;;;4.70;99.90;;;;;;5054023;28;20037;-72
2023/03/07 10:58:26;;;;;;;0.20;0.20;;;4.80;99.90;;;;;;5068468;28;20419;-73
2023/03/07 11:01:07;;;;;;;0.55;0.43;;;4.80;99.90;;;;;;5065484;28;20380;-72
2023/03/07 11:03:42;;;;;;;0.32;0.32;;;4.90;99.90;;;;;;5058105;28;20075;-73
2023/03/07 11:06:31;;;;;;;0.32;0.32;;;4.90;99.90;;;;;;5058999;28;20036;-71
2023/03/07 11:09:11;;;;;;;0.70;0.40;;;5.00;99.90;;;;;;5050479;28;20116;-71
2023/03/07 11:11:37;;;;;;;0.25;0.22;;;5.00;99.90;;;;;;5051042;28;20079;-72
2023/03/07 11:14:08;;;;;;;0.10;0.10;;;5.10;99.90;;;;;;5055731;28;20025;-72
2023/03/07 11:16:48;;;;;;;0.10;0.10;;;5.20;99.90;;;;;;5057356;28;20029;-72
2023/03/07 11:19:29;;;;;;;0.10;0.10;;;5.30;99.90;;;;;;5045822;28;20420;-72
2023/03/07 11:21:57;;;;;;;0.22;0.22;;;5.60;99.90;;;;;;5056594;28;20119;-72
2023/03/07 11:24:35;;;;;;;0.13;0.13;;;5.30;99.90;;;;;;5065653;28;20071;-73
2023/03/07 11:27:00;;;;;;;0.10;0.10;;;5.20;99.90;;;;;;5050588;28;20104;-74
2023/03/07 11:29:32;;;;;;;0.00;0.00;;;5.30;99.90;;;;;;5087051;28;20454;-71
2023/03/07 11:32:21;;;;;;;0.22;0.22;;;5.50;99.90;;;;;;5057441;28;20029;-72
2023/03/07 11:35:05;;;;;;;0.20;0.20;;;5.80;99.90;;;;;;5040354;28;20059;-72
2023/03/07 11:38:03;;;;;;;1.02;1.02;;;5.80;99.90;;;;;;5053977;28;20021;-74
2023/03/07 11:40:29;;;;;;;0.25;0.25;;;5.70;99.90;;;;;;5052875;28;20041;-75
2023/03/07 11:43:22;;;;;;;0.60;0.60;;;5.40;99.90;;;;;;5052513;28;20021;-71
2023/03/07 11:46:11;;;;;;;0.88;0.60;;;5.40;99.90;;;;;;5053253;28;20373;-72
2023/03/07 11:48:50;;;;;;;5.72;2.28;;;5.60;99.90;;;;;;5052785;28;20083;-73
2023/03/07 11:51:50;;;;;;;5.65;3.60;;;5.40;99.90;;;;;;5040710;28;20611;-72
2023/03/07 11:54:16;;;;;;;0.85;0.85;;;5.40;99.90;;;;;;5053365;28;20037;-72
2023/03/07 11:56:48;;;;;;;8.38;1.75;;;5.40;99.90;;;;;;5054212;28;20055;-73
2023/03/07 11:59:55;;;;;;;6.82;3.83;;;5.50;99.90;;;;;;5053204;28;20480;-73
2023/03/07 12:02:44;;;;;;;6.45;3.17;;;5.20;99.90;;;;;;5080004;28;20049;-71
2023/03/07 12:05:28;;;;;;;5.30;1.83;;;5.20;99.90;;;;;;5054262;28;20028;-75
2023/03/07 12:08:12;;;;;;;1.48;1.08;;;5.30;99.90;;;;;;5054287;28;20487;-71
2023/03/07 12:10:53;;;;;;;2.20;0.52;;;5.40;99.90;;;;;;5052494;28;20040;-71
2023/03/07 12:13:53;;;;;;;1.73;1.33;;;5.70;99.90;;;;;;5053670;28;20025;-72
2023/03/07 12:16:40;;;;;;;2.45;1.33;;;6.20;99.90;;;;;;5052814;28;20041;-72
2023/03/07 12:19:32;;;;;;;3.53;2.38;;;5.80;99.90;;;;;;5050252;28;20392;-71
2023/03/07 12:22:31;;;;;;;2.67;2.13;;;5.90;99.90;;;;;;5059378;28;20112;-72
2023/03/07 12:25:06;;;;;;;5.15;1.27;;;5.80;99.90;;;;;;5050270;28;20418;-72
2023/03/07 12:28:01;;;;;;;1.85;1.52;;;5.50;99.90;;;;;;5052828;28;20021;-72
2023/03/07 12:31:07;;;;;;;3.63;3.03;;;5.70;99.90;;;;;;5042307;28;20045;-72
2023/03/07 12:33:43;;;;;;;0.35;0.35;;;5.80;99.90;;;;;;5052767;28;20025;-71
2023/03/07 12:36:26;;;;;;;1.77;1.33;;;5.50;99.90;;;;;;5050086;28;20481;-73
2023/03/07 12:39:00;;;;;;;1.35;1.25;;;5.60;99.90;;;;;;5053176;28;20074;-72
2023/03/07 12:41:53;;;;;;;1.52;1.42;;;5.60;99.90;;;;;;5063276;28;20043;-72
2023/03/07 12:44:56;;;;;;;0.75;0.75;;;5.60;99.90;;;;;;5051248;28;20039;-72
2023/03/07 12:47:47;;;;;;;3.03;2.42;;;5.80;99.90;;;;;;5019204;28;20120;-72
2023/03/07 12:50:22;;;;;;;2.53;1.70;;;5.60;99.90;;;;;;5050408;28;20040;-73
2023/03/07 12:53:02;;;;;;;5.85;2.53;;;5.70;99.90;;;;;;5053685;28;20094;-71
2023/03/07 12:55:43;;;;;;;2.13;1.92;;;5.80;99.90;;;;;;5067595;28;20036;-73
2023/03/07 12:58:33;;;;;;;3.85;2.65;;;5.80;99.90;;;;;;5054739;28;20025;-72
2023/03/07 13:01:06;;;;;;;4.03;2.42;;;5.80;99.90;;;;;;5047747;28;20082;-72
2023/03/07 13:03:58;;;;;;;1.95;1.65;;;6.10;99.90;;;;;;5050656;28;20044;-72
2023/03/07 13:06:25;;;;;;;4.60;1.60;;;6.00;99.90;;;;;;5054878;28;20447;-72
2023/03/07 13:08:55;;;;;;;6.32;1.65;;;5.90;99.90;;;;;;5054436;28;20032;-71
2023/03/07 13:11:23;;;;;;;4.95;0.98;;;5.80;99.90;;;;;;5053262;28;20396;-72
2023/03/07 13:13:57;;;;;;;0.98;0.88;;;5.70;99.90;;;;;;5067160;28;20465;-72
2023/03/07 13:16:42;;;;;;;0.10;0.10;;;5.80;99.90;;;;;;5053493;28;21337;-72
2023/03/07 13:19:29;;;;;;;0.17;0.17;;;5.90;99.90;;;;;;5056456;28;20036;-72